Academy, SD

10:41 AM CST on January 30, 2015 (GMT -0600)
Old Herman, Platte | Change Station
CLOSE
Current Station
Personal Weather Station
Location: Platte, SD
Elevation: 1601 ft
Nearby Weather Stations

Elev 1601 ft 43.38 °N, 98.84 °W | Updated 4 minutes ago

Clear
Clear
33.6 °F
Feels Like 26 °F
N
10.0
Wind Variable Wind from South
Gusts 14.0 mph

Today
High -- | Low -- °F
--% Chance of Precip.
Yesterday
High -- | Low -- °F
Precip. -- in
7:53 AM 5:44 PM
Waxing Gibbous, 83% visible
Pressure 30.27 in
Visibility 10.0 miles
Clouds Clear
Windchill 26 °F
Dew Point 27 °F
Humidity 78%
Rainfall 0.00 in
Snow Depth Not available.
UV 1 out of 12
Pollen .10 out of 12
Air Quality Not available.
Flu Activity Not available.
METAR K9V9 301615Z AUTO 17006KT 10SM CLR 00/M03 A3027 RMK AO2 T10011035

More Conditions Fewer Conditions

Pressure 30.27 in
Visibility 10.0 miles
Clouds Clear
Windchill 26 °F
Dew Point 27 °F
Humidity 78%
Rainfall 0.00 in
Snow Depth Not available.
UV 1 out of 12
Pollen .10 out of 12
Air Quality Not available.
Flu Activity Not available.
METAR K9V9 301615Z AUTO 17006KT 10SM CLR 00/M03 A3027 RMK AO2 T10011035

More Conditions Fewer Conditions

10-Day Weather Forecast

Almanac

Astronomy

Jan. 30, 2015 Rise Set
Actual Time
Civil Twilight
Nautical Twilight
Astronomical Twilight
Moon
Length of Visible Light
Length of Day
Tomorrow will be .
, % of the Moon is Illuminated

Today's Extremes

State Highs State Lows

Community

WunderPhotos

Upload Photos

1,791,809 photos uploaded!

WunderBlogs® & News

Nearby

Air Quality

  Air Quality AQ Index Pollutant
Not available.

Snow Depth

Station Depth Elevation

Earthquake Activity

City Distance Mag. Time & Date
Minimum magnitude displayed is 2.5.

Coastal Water Temperatures

Place Temperature

Nearby Weather Stations